首页
METAR-TAF:

METAR-TAF

机场 :

印第安纳波利斯国际机场

印第安納波利斯, 印第安纳州, 美国

纬度: 39-43-30N, 经度: 086-16-55W, 海拔: 243米

当前天气观测

该预报发布于31分钟前的10:30 UTC
风速9节,风向
温度 -1°C
湿度 100%
气压 1019 hPa
能見度: 4.8公里
阴天层高于900英尺
(小) 冻, 雨, 轻雾

METAR: KIND 151030Z 08009KT 3SM -FZRA BR OVC009 M01/M01 A3009 RMK AO2 P0000 I1001 T10061011

时间: 06:01 (11:01 UTC)

预报

该预报发布于2小时和32分钟前的08:29 UTC
预报有效从15日的 08点(UTC)到 16日的 12点(UTC)
风速13节,风向东转东北,有时为18节阵风
能見度: 9.7公里
散云层高于1500英尺
阴天层高于5000英尺
(小) 冻, 雨, 冰粒
短暂存在
从 15日的 08点(UTC)到 15日的 11点(UTC)
能見度: 6.4公里
阴天层高于1500英尺
(小) 冻, 雨, 冰粒, 轻雾
从 15日的 1100点(UTC)
风速9节,风向东转东北
能見度: 8.0公里
阴天层高于800英尺
(小) 冻, 雨, 冰粒
从 15日的 1500点(UTC)
风速5节,风向
能見度: 10公里
阴天层高于300英尺
附近有阵雨
从 15日的 2100点(UTC)
风速3节,风向多变
能見度: 10公里
阴天层高于800英尺

TAF: KIND 150829Z 1508/1612 07013G18KT 6SM -FZRAPL SCT015 OVC050 TEMPO 1508/1511 4SM -FZRAPL BR OVC015 FM151100 07009KT 5SM -FZRAPL OVC008 FM151500 08005KT P6SM VCSH OVC003 FM152100 VRB03KT P6SM OVC008

超过4000个机场的气象观测和天气预报(METAR&TAF报告)。

可查询的气象台以黄色和红色小点在地图上表示。

将鼠标移到小点上方,可查看气象台名称。

然后点击查看天气观测和预报。

如需切换地图:点击带黑十字的绿色按钮放大地图;点击带横线的绿色按钮缩小地图;或者点击绿色箭头查看邻近地区的地图。


METAR-TAF: